Terminal Aerodrome Forecast
Issued by NWS Sterling, VA

Home | Current Version | Previous Version | Text Only | Print | Product List | Glossary On
Versions: 1 2 3 4 5 6 7 8 9 10 11 12 13 14 15 16 17 18 19 20 21 22 23
005
FTUS41 KLWX 232353 CCA
TAFBWI
TAF COR
KBWI 232353Z 2400/2506 27010KT P6SM BKN060
      TEMPO 2400/2401 5SM -TSRA BKN030CB
     FM240100 29004KT P6SM SCT060
     FM240300 00000KT P6SM SCT060=

USA.gov is the U.S. government's official web portal to all federal, state and local government web resources and services.